createdAt,value
2023-04-18T00:00:10.379Z,96391.97
2023-04-18T00:02:44.259Z,96391.75
2023-04-18T00:05:18.265Z,96381.50
2023-04-18T00:07:52.823Z,96382.38
2023-04-18T00:10:25.840Z,96387.88
2023-04-18T00:13:00.596Z,96388.00
2023-04-18T00:15:34.569Z,96381.63
2023-04-18T00:18:08.450Z,96369.47
2023-04-18T00:20:41.163Z,96376.84
2023-04-18T00:23:16.675Z,96373.50
2023-04-18T00:25:49.398Z,96371.75
2023-04-18T00:28:22.136Z,96363.34
2023-04-18T00:30:54.836Z,96367.25
2023-04-18T00:33:27.600Z,96365.81
2023-04-18T00:36:00.248Z,96364.72
2023-04-18T00:38:34.322Z,96367.84
2023-04-18T00:41:06.990Z,96364.03
2023-04-18T00:43:39.718Z,96363.38
2023-04-18T00:46:12.450Z,96367.63
2023-04-18T00:48:45.198Z,96365.38
2023-04-18T00:51:17.960Z,96356.25
2023-04-18T00:53:52.651Z,96358.56
2023-04-18T00:56:25.972Z,96352.88
2023-04-18T00:58:59.396Z,96351.31
2023-04-18T01:01:33.637Z,96357.13
2023-04-18T01:04:06.702Z,96353.66
2023-04-18T01:06:39.643Z,96354.13
2023-04-18T01:09:14.532Z,96350.66
2023-04-18T01:11:47.263Z,96347.63
2023-04-18T01:14:20.629Z,96350.78
2023-04-18T01:16:53.309Z,96348.09
2023-04-18T01:19:26.155Z,96345.41
2023-04-18T01:21:58.857Z,96344.28
2023-04-18T01:24:33.038Z,96339.28
2023-04-18T01:27:05.940Z,96341.59
2023-04-18T01:29:39.074Z,96340.38
2023-04-18T01:32:11.846Z,96334.25
2023-04-18T01:34:44.646Z,96340.06
2023-04-18T01:37:17.669Z,96330.13
2023-04-18T01:39:52.048Z,96332.81
2023-04-18T01:42:24.836Z,96334.34
2023-04-18T01:44:57.539Z,96327.09
2023-04-18T01:47:30.254Z,96329.44
2023-04-18T01:50:03.451Z,96322.16
2023-04-18T01:52:36.086Z,96322.97
2023-04-18T01:55:11.055Z,96323.41
2023-04-18T01:57:43.786Z,96324.19
2023-04-18T02:00:16.728Z,96331.91
2023-04-18T02:02:50.638Z,96316.94
2023-04-18T02:05:23.917Z,96320.06
2023-04-18T02:07:56.708Z,96311.25
2023-04-18T02:10:31.120Z,96313.94
2023-04-18T02:13:03.861Z,96309.34
2023-04-18T02:15:36.541Z,96306.31
2023-04-18T02:18:09.622Z,96304.41
2023-04-18T02:20:42.287Z,96304.88
2023-04-18T02:23:15.026Z,96302.50
2023-04-18T02:25:49.144Z,96302.19
2023-04-18T02:28:21.810Z,96302.19
2023-04-18T02:30:54.489Z,96307.22
2023-04-18T02:33:27.179Z,96309.56
2023-04-18T02:35:59.841Z,96308.78
2023-04-18T02:38:32.622Z,96304.19
2023-04-18T02:41:06.841Z,96305.75
2023-04-18T02:43:39.552Z,96305.06
2023-04-18T02:46:12.329Z,96302.38
2023-04-18T02:48:45.026Z,96295.91
2023-04-18T02:51:20.031Z,96296.69
2023-04-18T02:53:55.091Z,96295.25
2023-04-18T02:56:29.185Z,96291.00
2023-04-18T02:59:01.817Z,96287.69
2023-04-18T03:01:34.637Z,96285.00
2023-04-18T03:04:07.265Z,96292.34
2023-04-18T03:06:39.865Z,96291.56
2023-04-18T03:09:12.599Z,96290.78
2023-04-18T03:11:46.631Z,96295.03
2023-04-18T03:14:19.319Z,96285.09
2023-04-18T03:16:54.695Z,96287.31
2023-04-18T03:19:28.228Z,96275.81
2023-04-18T03:22:00.956Z,96279.28
2023-04-18T03:24:33.590Z,96282.31
2023-04-18T03:27:07.661Z,96279.28
2023-04-18T03:29:40.429Z,96277.72
2023-04-18T03:32:13.227Z,96281.53
2023-04-18T03:34:45.945Z,96286.13
2023-04-18T03:37:18.693Z,96279.16
2023-04-18T03:39:51.338Z,96276.81
2023-04-18T03:42:25.398Z,96282.63
2023-04-18T03:44:58.053Z,96286.91
2023-04-18T03:47:32.283Z,96280.75
2023-04-18T03:50:05.262Z,96277.28
2023-04-18T03:52:38.268Z,96275.41
2023-04-18T03:55:11.430Z,96276.50
2023-04-18T03:57:45.562Z,96274.91
2023-04-18T04:00:18.426Z,96276.03
2023-04-18T04:02:51.311Z,96265.66
2023-04-18T04:05:24.203Z,96264.88
2023-04-18T04:07:57.002Z,96265.56
2023-04-18T04:10:29.723Z,96271.72
2023-04-18T04:13:03.984Z,96268.25
2023-04-18T04:15:37.768Z,96276.28
2023-04-18T04:18:10.483Z,96268.25
2023-04-18T04:20:43.342Z,96270.91
2023-04-18T04:23:16.273Z,96280.50
2023-04-18T04:25:49.091Z,96279.38
2023-04-18T04:28:24.024Z,96277.16
2023-04-18T04:30:56.712Z,96276.03
2023-04-18T04:33:29.627Z,96282.63
2023-04-18T04:36:02.272Z,96284.22
2023-04-18T04:38:38.315Z,96285.44
2023-04-18T04:41:11.855Z,96283.84
2023-04-18T04:43:46.710Z,96290.78
2023-04-18T04:46:20.288Z,96288.09
2023-04-18T04:48:54.753Z,96290.78
2023-04-18T04:51:28.062Z,96290.00
2023-04-18T04:54:00.789Z,96287.69
2023-04-18T04:56:33.670Z,96296.47
2023-04-18T04:59:07.690Z,96295.03
2023-04-18T05:01:40.441Z,96300.41
2023-04-18T05:04:14.262Z,96296.16
2023-04-18T05:06:47.278Z,96300.06
2023-04-18T05:09:20.052Z,96287.44
2023-04-18T05:11:52.762Z,96291.69
2023-04-18T05:14:27.787Z,96294.44
2023-04-18T05:17:00.567Z,96294.13
2023-04-18T05:19:33.308Z,96295.69
2023-04-18T05:22:05.930Z,96295.34
2023-04-18T05:24:38.738Z,96296.13
2023-04-18T05:27:11.363Z,96287.75
2023-04-18T05:29:47.620Z,96298.91
2023-04-18T05:32:20.421Z,96300.13
2023-04-18T05:34:53.164Z,96297.44
2023-04-18T05:37:25.817Z,96303.25
2023-04-18T05:40:00.551Z,96306.38
2023-04-18T05:42:33.655Z,96298.34
2023-04-18T05:45:08.916Z,96301.03
2023-04-18T05:47:41.697Z,96315.63
2023-04-18T05:50:14.539Z,96307.59
2023-04-18T05:52:47.441Z,96303.00
2023-04-18T05:55:21.784Z,96305.69
2023-04-18T05:57:54.501Z,96315.31
2023-04-18T06:00:28.636Z,96310.72
2023-04-18T06:03:01.640Z,96306.13
2023-04-18T06:05:34.772Z,96309.59
2023-04-18T06:08:07.668Z,96318.53
2023-04-18T06:10:40.408Z,96315.88
2023-04-18T06:13:13.094Z,96316.28
2023-04-18T06:15:47.354Z,96323.31
2023-04-18T06:18:20.411Z,96329.22
2023-04-18T06:20:53.130Z,96328.22
2023-04-18T06:23:25.854Z,96326.06
2023-04-18T06:25:58.759Z,96330.84
2023-04-18T06:28:31.409Z,96329.81
2023-04-18T06:31:05.720Z,96328.44
2023-04-18T06:33:38.690Z,96329.69
2023-04-18T06:36:11.793Z,96332.44
2023-04-18T06:38:44.444Z,96332.56
2023-04-18T06:41:17.302Z,96333.78
2023-04-18T06:44:02.845Z,96331.50
2023-04-18T06:46:37.956Z,96329.72
2023-04-18T06:49:11.294Z,96332.47
2023-04-18T06:51:44.022Z,96319.16
2023-04-18T06:54:16.700Z,96330.34
2023-04-18T06:56:49.692Z,96330.41
2023-04-18T06:59:23.381Z,96324.72
2023-04-18T07:01:57.858Z,96326.81
2023-04-18T07:04:30.687Z,96329.56
2023-04-18T07:07:05.406Z,96328.19
2023-04-18T07:09:38.064Z,96333.69
2023-04-18T07:12:10.874Z,96333.41
2023-04-18T07:14:43.514Z,96333.53
2023-04-18T07:17:17.942Z,96332.84
2023-04-18T07:19:50.655Z,96331.34
2023-04-18T07:22:23.322Z,96331.09
2023-04-18T07:24:56.042Z,96329.28
2023-04-18T07:27:28.661Z,96329.38
2023-04-18T07:30:01.316Z,96329.88
2023-04-18T07:32:35.625Z,96330.03
2023-04-18T07:35:08.575Z,96328.22
2023-04-18T07:37:41.248Z,96328.31
2023-04-18T07:40:14.442Z,96332.66
2023-04-18T07:42:47.152Z,96341.22
2023-04-18T07:45:19.996Z,96337.06
2023-04-18T07:47:54.121Z,96340.25
2023-04-18T07:50:26.928Z,96344.59
2023-04-18T07:52:59.690Z,96338.53
2023-04-18T07:55:32.603Z,96345.63
2023-04-18T07:58:05.279Z,96336.91
2023-04-18T08:00:38.844Z,96348.25
2023-04-18T08:03:13.770Z,96338.09
2023-04-18T08:05:47.008Z,96344.13
2023-04-18T08:08:19.862Z,96342.44
2023-04-18T08:10:52.553Z,96350.75
2023-04-18T08:13:25.305Z,96351.72
2023-04-18T08:15:59.827Z,96355.41
2023-04-18T08:18:34.050Z,96351.72
2023-04-18T08:21:06.795Z,96350.66
2023-04-18T08:23:39.828Z,96354.63
2023-04-18T08:26:12.528Z,96355.41
2023-04-18T08:28:46.722Z,96356.44
2023-04-18T08:31:19.666Z,96359.88
2023-04-18T08:33:53.819Z,96357.88
2023-04-18T08:36:26.811Z,96353.97
2023-04-18T08:38:59.752Z,96369.38
2023-04-18T08:41:36.636Z,96351.66
2023-04-18T08:44:09.514Z,96358.59
2023-04-18T08:46:42.164Z,96361.34
2023-04-18T08:49:17.806Z,96356.41
2023-04-18T08:51:51.060Z,96363.81
2023-04-18T08:54:25.085Z,96365.09
2023-04-18T08:57:06.210Z,96362.94
2023-04-18T08:59:40.205Z,96365.47
2023-04-18T09:02:13.787Z,96369.16
2023-04-18T09:04:52.486Z,96369.00
2023-04-18T09:07:28.982Z,96369.19
2023-04-18T09:10:01.696Z,96365.03
2023-04-18T09:12:36.017Z,96365.16
2023-04-18T09:15:13.388Z,96366.06
2023-04-18T09:17:49.416Z,96364.19
2023-04-18T09:20:35.800Z,96358.88
2023-04-18T09:23:10.748Z,96362.09
2023-04-18T09:25:46.637Z,96360.34
2023-04-18T09:28:23.671Z,96357.06
2023-04-18T09:30:57.183Z,96364.16
2023-04-18T09:33:32.658Z,96371.97
2023-04-18T09:36:20.144Z,96365.44
2023-04-18T09:38:56.324Z,96363.50
2023-04-18T09:41:30.594Z,96369.75
2023-04-18T09:44:13.247Z,96372.47
2023-04-18T09:46:47.849Z,96371.38
2023-04-18T09:49:21.148Z,96371.47
2023-04-18T09:51:56.038Z,96370.06
2023-04-18T09:54:32.138Z,96372.06
2023-04-18T09:57:07.529Z,96362.88
2023-04-18T09:59:43.763Z,96370.25
2023-04-18T10:02:21.234Z,96367.59
2023-04-18T10:04:55.550Z,96369.56
2023-04-18T10:07:29.831Z,96362.59
2023-04-18T10:10:02.561Z,96367.69
2023-04-18T10:12:35.321Z,96372.75
2023-04-18T10:15:09.004Z,96368.19
2023-04-18T10:17:55.995Z,96362.06
2023-04-18T10:20:34.779Z,96364.47
2023-04-18T10:23:22.579Z,96360.25
2023-04-18T10:25:56.767Z,96359.13
2023-04-18T10:28:49.802Z,96364.25
2023-04-18T10:31:22.853Z,96357.03
2023-04-18T10:36:32.498Z,96354.09
2023-04-18T10:39:21.945Z,96355.66
2023-04-18T10:41:56.252Z,96369.66
2023-04-18T10:44:28.961Z,96362.31
2023-04-18T10:47:21.040Z,96354.25
2023-04-18T10:49:58.141Z,96354.66
2023-04-18T10:52:31.920Z,96349.69
2023-04-18T10:55:12.511Z,96355.91
2023-04-18T10:57:47.170Z,96347.47
2023-04-18T11:00:21.925Z,96355.63
2023-04-18T11:02:57.809Z,96344.81
2023-04-18T11:05:30.833Z,96347.56
2023-04-18T11:08:03.532Z,96350.28
2023-04-18T11:10:36.307Z,96338.25
2023-04-18T11:13:10.315Z,96335.13
2023-04-18T11:15:43.175Z,96349.47
2023-04-18T11:18:16.070Z,96341.34
2023-04-18T11:20:50.166Z,96343.28
2023-04-18T11:23:25.136Z,96334.81
2023-04-18T11:25:58.743Z,96346.81
2023-04-18T11:28:32.998Z,96349.19
2023-04-18T11:31:05.848Z,96348.44
2023-04-18T11:33:38.529Z,96348.47
2023-04-18T11:36:11.216Z,96336.13
2023-04-18T11:38:43.839Z,96328.78
2023-04-18T11:41:16.946Z,96345.09
2023-04-18T11:43:50.959Z,96343.56
2023-04-18T11:46:23.663Z,96338.13
2023-04-18T11:48:56.397Z,96344.34
2023-04-18T11:51:34.168Z,96339.31
2023-04-18T11:54:06.948Z,96343.19
2023-04-18T11:56:47.884Z,96345.16
2023-04-18T11:59:21.966Z,96348.25
2023-04-18T12:02:08.843Z,96351.03
2023-04-18T12:04:55.257Z,96345.59
2023-04-18T12:07:36.037Z,96355.69
2023-04-18T12:10:09.686Z,96344.47
2023-04-18T12:12:48.553Z,96349.88
2023-04-18T12:15:24.167Z,96358.81
2023-04-18T12:18:00.554Z,96351.84
2023-04-18T12:20:37.502Z,96357.66
2023-04-18T12:23:10.191Z,96351.84
2023-04-18T12:25:42.914Z,96353.41
2023-04-18T12:28:16.813Z,96354.16
2023-04-18T12:30:51.180Z,96349.50
2023-04-18T12:33:23.930Z,96355.66
2023-04-18T12:35:56.685Z,96345.59
2023-04-18T12:38:29.396Z,96348.69
2023-04-18T12:41:02.061Z,96342.03
2023-04-18T12:43:35.277Z,96337.38
2023-04-18T12:46:09.419Z,96347.06
2023-04-18T12:48:42.103Z,96333.47
2023-04-18T12:51:14.777Z,96327.63
2023-04-18T12:53:47.474Z,96334.22
2023-04-18T12:56:20.136Z,96348.91
2023-04-18T12:58:52.901Z,96346.63
2023-04-18T13:01:27.845Z,96341.59
2023-04-18T13:04:11.857Z,96332.69
2023-04-18T13:06:45.835Z,96344.31
2023-04-18T13:09:18.565Z,96343.53
2023-04-18T13:11:51.295Z,96335.78
2023-04-18T13:14:24.180Z,96323.41
2023-04-18T13:16:58.641Z,96326.88
2023-04-18T13:19:31.919Z,96334.59
2023-04-18T13:22:04.928Z,96336.13
2023-04-18T13:24:37.683Z,96321.00
2023-04-18T13:27:11.408Z,96323.72
2023-04-18T13:29:45.738Z,96331.44
2023-04-18T13:32:19.872Z,96337.25
2023-04-18T13:34:52.591Z,96323.31
2023-04-18T13:37:25.358Z,96323.31
2023-04-18T13:39:58.022Z,96319.09
2023-04-18T13:42:30.728Z,96321.00
2023-04-18T13:45:03.435Z,96317.94
2023-04-18T13:47:38.172Z,96313.72
2023-04-18T13:50:11.311Z,96333.84
2023-04-18T13:52:43.955Z,96309.88
2023-04-18T13:55:17.994Z,96313.72
2023-04-18T13:57:51.061Z,96313.75
2023-04-18T14:00:23.814Z,96313.72
2023-04-18T14:02:58.085Z,96319.88
2023-04-18T14:05:30.851Z,96313.66
2023-04-18T14:08:04.105Z,96301.28
2023-04-18T14:10:36.793Z,96301.25
2023-04-18T14:13:09.487Z,96312.13
2023-04-18T14:15:42.210Z,96317.94
2023-04-18T14:18:17.869Z,96313.28
2023-04-18T14:20:50.634Z,96304.00
2023-04-18T14:23:23.723Z,96303.56
2023-04-18T14:25:56.421Z,96300.44
2023-04-18T14:28:29.098Z,96297.31
2023-04-18T14:31:03.026Z,96301.56
2023-04-18T14:33:37.534Z,96306.16
2023-04-18T14:36:10.606Z,96286.41
2023-04-18T14:38:43.302Z,96285.25
2023-04-18T14:41:16.103Z,96298.78
2023-04-18T14:43:48.809Z,96308.09
2023-04-18T14:46:22.323Z,96306.16
2023-04-18T14:48:56.437Z,96303.84
2023-04-18T14:51:29.103Z,96292.63
2023-04-18T14:54:01.690Z,96294.97
2023-04-18T14:56:34.607Z,96306.56
2023-04-18T14:59:07.306Z,96297.66
2023-04-18T15:01:41.497Z,96301.16
2023-04-18T15:04:16.058Z,96302.34
2023-04-18T15:06:49.040Z,96295.00
2023-04-18T15:09:21.708Z,96300.41
2023-04-18T15:11:54.442Z,96309.72
2023-04-18T15:14:27.104Z,96312.03
2023-04-18T15:16:59.810Z,96306.63
2023-04-18T15:19:34.493Z,96315.16
2023-04-18T15:22:07.633Z,96310.09
2023-04-18T15:24:40.285Z,96307.81
2023-04-18T15:27:12.994Z,96319.78
2023-04-18T15:29:45.631Z,96305.47
2023-04-18T15:32:18.422Z,96309.34
2023-04-18T15:34:52.620Z,96318.22
2023-04-18T15:37:26.342Z,96311.22
2023-04-18T15:39:58.980Z,96315.09
2023-04-18T15:42:31.755Z,96320.13
2023-04-18T15:45:05.320Z,96319.34
2023-04-18T15:47:38.849Z,96321.31
2023-04-18T15:50:13.116Z,96327.13
2023-04-18T15:52:45.764Z,96325.22
2023-04-18T15:55:18.405Z,96313.97
2023-04-18T15:57:51.200Z,96328.25
2023-04-18T16:00:24.016Z,96327.47
2023-04-18T16:02:57.203Z,96330.16
2023-04-18T16:05:31.275Z,96335.56
2023-04-18T16:08:03.939Z,96330.91
2023-04-18T16:10:36.614Z,96332.47
2023-04-18T16:13:09.335Z,96349.50
2023-04-18T16:15:42.869Z,96337.47
2023-04-18T16:18:15.662Z,96340.19
2023-04-18T16:20:49.698Z,96352.94
2023-04-18T16:23:22.529Z,96350.19
2023-04-18T16:25:55.888Z,96353.28
2023-04-18T16:28:30.043Z,96359.03
2023-04-18T16:31:02.736Z,96358.25
2023-04-18T16:33:35.471Z,96364.41
2023-04-18T16:36:10.613Z,96360.53
2023-04-18T16:38:43.366Z,96353.91
2023-04-18T16:41:16.409Z,96363.19
2023-04-18T16:43:49.171Z,96357.75
2023-04-18T16:46:22.327Z,96357.31
2023-04-18T16:48:55.105Z,96361.94
2023-04-18T16:51:29.822Z,96367.31
2023-04-18T16:54:02.604Z,96369.22
2023-04-18T16:56:35.347Z,96376.53
2023-04-18T16:59:09.445Z,96375.75
2023-04-18T17:01:42.167Z,96382.66
2023-04-18T17:04:15.860Z,96377.19
2023-04-18T17:06:51.882Z,96380.59
2023-04-18T17:09:24.983Z,96387.88
2023-04-18T17:11:57.994Z,96385.47
2023-04-18T17:14:31.012Z,96382.66
2023-04-18T17:17:03.914Z,96380.97
2023-04-18T17:19:36.912Z,96390.88
2023-04-18T17:22:12.089Z,96396.94
2023-04-18T17:24:44.755Z,96396.84
2023-04-18T17:27:17.411Z,96403.25
2023-04-18T17:29:50.082Z,96396.91
2023-04-18T17:32:23.251Z,96405.66
2023-04-18T17:34:56.198Z,96400.13
2023-04-18T17:37:30.380Z,96405.75
2023-04-18T17:42:39.186Z,96409.75
2023-04-18T17:45:12.009Z,96403.84
2023-04-18T17:47:44.754Z,96409.88
2023-04-18T17:50:17.483Z,96418.28
2023-04-18T17:52:51.529Z,96420.88
2023-04-18T17:55:24.245Z,96420.78
2023-04-18T17:57:57.502Z,96424.13
2023-04-18T18:00:31.292Z,96424.78
2023-04-18T18:03:04.267Z,96431.97
2023-04-18T18:05:37.123Z,96432.19
2023-04-18T18:08:11.226Z,96432.44
2023-04-18T18:10:46.528Z,96437.59
2023-04-18T18:13:19.438Z,96438.94
2023-04-18T18:15:52.102Z,96440.28
2023-04-18T18:18:24.852Z,96444.38
2023-04-18T18:20:58.252Z,96445.72
2023-04-18T18:23:32.387Z,96448.19
2023-04-18T18:26:06.619Z,96451.84
2023-04-18T18:28:39.288Z,96455.53
2023-04-18T18:31:12.068Z,96463.47
2023-04-18T18:33:44.749Z,96467.19
2023-04-18T18:36:17.493Z,96465.47
2023-04-18T18:38:51.568Z,96473.84
2023-04-18T18:41:24.458Z,96462.13
2023-04-18T18:43:57.335Z,96475.47
2023-04-18T18:46:30.049Z,96471.81
2023-04-18T18:49:03.148Z,96474.75
2023-04-18T18:51:37.194Z,96480.41
2023-04-18T18:54:11.297Z,96486.75
2023-04-18T18:56:45.248Z,96490.84
2023-04-18T18:59:18.028Z,96492.22
2023-04-18T19:01:50.826Z,96483.53
2023-04-18T19:10:51.767Z,96503.63
2023-04-18T19:13:25.170Z,96510.72
2023-04-18T19:15:57.920Z,96503.69
2023-04-18T19:18:31.064Z,96506.28
2023-04-18T19:21:03.813Z,96509.22
2023-04-18T19:23:36.848Z,96514.16
2023-04-18T19:26:11.118Z,96506.34
2023-04-18T19:28:43.764Z,96502.75
2023-04-18T19:31:16.436Z,96506.91
2023-04-18T19:33:49.171Z,96512.53
2023-04-18T19:36:22.602Z,96516.66
2023-04-18T19:38:55.255Z,96512.63
2023-04-18T19:41:29.409Z,96523.59
2023-04-18T19:44:05.096Z,96523.84
2023-04-18T19:46:37.792Z,96524.88
2023-04-18T19:49:10.585Z,96523.53
2023-04-18T19:51:43.384Z,96521.09
2023-04-18T19:54:16.078Z,96526.69
2023-04-18T19:56:50.765Z,96531.19
2023-04-18T19:59:23.481Z,96530.28
2023-04-18T20:01:57.997Z,96525.59
2023-04-18T20:04:34.390Z,96515.09
2023-04-18T20:07:07.597Z,96528.06
2023-04-18T20:09:40.240Z,96523.69
2023-04-18T20:12:14.434Z,96533.97
2023-04-18T20:14:47.128Z,96522.38
2023-04-18T20:17:19.786Z,96529.97
2023-04-18T20:19:52.440Z,96519.47
2023-04-18T20:22:26.792Z,96531.66
2023-04-18T20:24:59.813Z,96525.38
2023-04-18T20:27:34.001Z,96523.72
2023-04-18T20:30:07.333Z,96527.06
2023-04-18T20:32:40.031Z,96523.91
2023-04-18T20:35:12.968Z,96536.13
2023-04-18T20:37:46.039Z,96524.94
2023-04-18T20:40:18.707Z,96532.53
2023-04-18T20:42:54.579Z,96526.72
2023-04-18T20:45:27.868Z,96531.19
2023-04-18T20:48:00.798Z,96531.84
2023-04-18T20:50:33.535Z,96538.69
2023-04-18T20:53:06.291Z,96534.31
2023-04-18T20:55:38.888Z,96534.53
2023-04-18T20:58:12.975Z,96537.09
2023-04-18T21:00:45.711Z,96540.09
2023-04-18T21:03:18.468Z,96539.50
2023-04-18T21:05:51.184Z,96545.84
2023-04-18T21:08:23.937Z,96546.06
2023-04-18T21:10:56.608Z,96548.28
2023-04-18T21:13:31.287Z,96552.75
2023-04-18T21:16:07.478Z,96552.63
2023-04-18T21:18:42.309Z,96561.66
2023-04-18T21:21:14.993Z,96543.56
2023-04-18T21:23:47.695Z,96549.94
2023-04-18T21:26:20.525Z,96555.94
2023-04-18T21:28:58.677Z,96551.53
2023-04-18T21:31:32.811Z,96555.22
2023-04-18T21:34:06.354Z,96558.13
2023-04-18T21:36:40.146Z,96555.31
2023-04-18T21:39:13.016Z,96564.31
2023-04-18T21:41:45.775Z,96558.06
2023-04-18T21:44:19.830Z,96554.78
2023-04-18T21:46:52.577Z,96563.00
2023-04-18T21:49:25.802Z,96559.44
2023-04-18T21:51:58.449Z,96562.28
2023-04-18T21:54:31.244Z,96554.00
2023-04-18T21:57:05.942Z,96569.16
2023-04-18T21:59:39.963Z,96563.50
2023-04-18T22:02:12.686Z,96565.28
2023-04-18T22:04:45.495Z,96555.22
2023-04-18T22:07:18.793Z,96564.34
2023-04-18T22:09:51.761Z,96563.13
2023-04-18T22:12:24.551Z,96557.00
2023-04-18T22:14:58.652Z,96559.69
2023-04-18T22:17:31.539Z,96553.22
2023-04-18T22:20:05.820Z,96556.66
2023-04-18T22:22:38.494Z,96562.47
2023-04-18T22:25:11.973Z,96557.44
2023-04-18T22:27:45.342Z,96552.44
2023-04-18T22:30:19.393Z,96550.88
2023-04-18T22:32:52.251Z,96554.66
2023-04-18T22:35:25.047Z,96555.75
2023-04-18T22:37:57.875Z,96555.28
2023-04-18T22:40:30.545Z,96556.06
2023-04-18T22:43:03.187Z,96557.97
2023-04-18T22:45:37.345Z,96566.78
2023-04-18T22:48:12.294Z,96565.66
2023-04-18T22:50:46.446Z,96571.16
2023-04-18T22:53:19.167Z,96563.25
2023-04-18T22:55:51.820Z,96560.25
2023-04-18T22:58:24.479Z,96567.31
2023-04-18T23:00:58.636Z,96565.56
2023-04-18T23:03:32.346Z,96559.22
2023-04-18T23:06:05.240Z,96562.03
2023-04-18T23:08:37.835Z,96560.59
2023-04-18T23:11:11.611Z,96567.97
2023-04-18T23:13:44.279Z,96562.28
2023-04-18T23:16:18.417Z,96566.22
2023-04-18T23:18:51.108Z,96562.44
2023-04-18T23:21:23.810Z,96560.22
2023-04-18T23:23:56.813Z,96565.69
2023-04-18T23:26:29.488Z,96563.16
2023-04-18T23:29:02.424Z,96568.75
2023-04-18T23:31:36.683Z,96565.09
2023-04-18T23:34:09.418Z,96557.66
2023-04-18T23:36:42.444Z,96562.81
2023-04-18T23:39:15.156Z,96562.63
2023-04-18T23:41:47.820Z,96562.41
2023-04-18T23:44:20.586Z,96554.50
2023-04-18T23:46:54.700Z,96564.69
2023-04-18T23:49:28.420Z,96560.19
2023-04-18T23:52:01.481Z,96561.59
2023-04-18T23:54:34.199Z,96560.13
2023-04-18T23:57:07.010Z,96551.44
2023-04-18T23:59:39.675Z,96553.47
